Time;durP1;ratioP1;P1;durP2;ratioP2;P2;SDS_P1;SDS_P2;PMS_P1;PMS_P2;Temp;Humidity;BMP_temperature;BMP_pressure;BME280_temperature;BME280_humidity;BME280_pressure;Samples;Min_cycle;Max_cycle;Signal;HPM_P1;HPM_P2
2021/12/03 00:03:18;;;;;;;15.70;4.97;;;;;;;;;;8398600;28;20041;-77
2021/12/03 00:07:21;;;;;;;12.35;4.15;;;;;;;;;;8399007;28;20040;-76
2021/12/03 00:11:24;;;;;;;14.73;5.00;;;;;;;;;;8398838;28;20408;-76
2021/12/03 00:15:28;;;;;;;17.38;5.20;;;;;;;;;;8398045;28;20091;-76
2021/12/03 00:19:32;;;;;;;10.90;4.30;;;;;;;;;;8398242;28;20399;-76
2021/12/03 00:23:36;;;;;;;14.27;4.15;;;;;;;;;;8397883;28;20412;-77
2021/12/03 00:27:39;;;;;;;8.50;3.75;;;;;;;;;;8398341;28;20469;-76
2021/12/03 00:31:42;;;;;;;11.75;4.50;;;;;;;;;;8398295;28;20051;-76
2021/12/03 00:35:46;;;;;;;18.15;4.25;;;;;;;;;;8398131;28;20532;-77
2021/12/03 00:39:49;;;;;;;10.80;3.97;;;;;;;;;;8397561;28;20052;-76
2021/12/03 00:43:53;;;;;;;9.90;3.88;;;;;;;;;;8397346;28;20488;-76
2021/12/03 00:47:56;;;;;;;11.07;4.40;;;;;;;;;;8397094;28;20048;-76
2021/12/03 00:52:00;;;;;;;10.48;4.53;;;;;;;;;;8397341;28;20492;-76
2021/12/03 00:56:04;;;;;;;6.93;3.75;;;;;;;;;;8397661;28;20512;-77
2021/12/03 01:00:11;;;;;;;11.32;4.25;;;;;;;;;;8396312;28;20116;-76
2021/12/03 01:04:14;;;;;;;12.27;4.25;;;;;;;;;;8396976;28;20060;-77
2021/12/03 01:08:18;;;;;;;11.88;4.15;;;;;;;;;;8397473;28;20105;-77
2021/12/03 01:12:22;;;;;;;8.02;3.63;;;;;;;;;;8396889;28;20051;-76
2021/12/03 01:16:24;;;;;;;9.88;4.57;;;;;;;;;;8396843;28;20052;-76
2021/12/03 01:20:28;;;;;;;13.38;4.05;;;;;;;;;;8396748;28;20048;-77
2021/12/03 01:24:33;;;;;;;11.63;4.10;;;;;;;;;;8396598;28;20381;-76
2021/12/03 01:28:36;;;;;;;7.57;4.38;;;;;;;;;;8401593;28;20450;-77
2021/12/03 01:32:39;;;;;;;10.30;4.97;;;;;;;;;;8403985;28;20451;-77
2021/12/03 01:36:42;;;;;;;8.70;4.35;;;;;;;;;;8403301;28;20048;-77
2021/12/03 01:40:46;;;;;;;10.10;3.97;;;;;;;;;;8403183;28;20102;-77
2021/12/03 01:44:50;;;;;;;11.48;4.55;;;;;;;;;;8403466;28;20049;-76
2021/12/03 01:48:52;;;;;;;11.77;4.80;;;;;;;;;;8402622;28;20053;-76
2021/12/03 01:52:56;;;;;;;9.57;3.90;;;;;;;;;;8402750;28;20049;-76
2021/12/03 01:57:00;;;;;;;9.20;3.63;;;;;;;;;;8403199;28;20048;-76
2021/12/03 02:01:09;;;;;;;11.15;4.22;;;;;;;;;;8402552;28;20067;-77
2021/12/03 02:05:12;;;;;;;11.13;4.20;;;;;;;;;;8402406;28;20143;-77
2021/12/03 02:09:15;;;;;;;8.40;4.57;;;;;;;;;;8402239;28;20412;-76
2021/12/03 02:13:19;;;;;;;10.32;4.72;;;;;;;;;;8402171;28;20049;-76
2021/12/03 02:17:22;;;;;;;11.25;4.82;;;;;;;;;;8402095;28;20051;-77
2021/12/03 02:21:27;;;;;;;14.45;4.25;;;;;;;;;;8402009;28;20049;-76
2021/12/03 02:25:30;;;;;;;9.05;4.03;;;;;;;;;;8401700;28;20053;-76
2021/12/03 02:29:33;;;;;;;9.48;4.85;;;;;;;;;;8401690;28;20119;-76
2021/12/03 02:33:37;;;;;;;9.73;4.70;;;;;;;;;;8401425;28;20045;-76
2021/12/03 02:37:41;;;;;;;12.38;4.53;;;;;;;;;;8403432;28;20085;-77
2021/12/03 02:41:44;;;;;;;10.38;4.15;;;;;;;;;;8412655;28;20598;-76
2021/12/03 02:45:47;;;;;;;8.10;4.10;;;;;;;;;;8421012;28;20045;-76
2021/12/03 02:49:50;;;;;;;9.15;3.70;;;;;;;;;;8400829;28;20056;-77
2021/12/03 02:53:54;;;;;;;8.73;4.05;;;;;;;;;;8400895;28;20052;-76
2021/12/03 02:57:57;;;;;;;9.15;3.92;;;;;;;;;;8401268;28;20055;-76
2021/12/03 03:02:00;;;;;;;6.38;3.63;;;;;;;;;;8401249;28;20040;-77
2021/12/03 03:06:06;;;;;;;9.88;4.25;;;;;;;;;;8400561;28;20048;-77
2021/12/03 03:10:14;;;;;;;9.70;4.57;;;;;;;;;;8400477;28;20052;-76
2021/12/03 03:14:17;;;;;;;8.77;5.35;;;;;;;;;;8400852;28;20454;-76
2021/12/03 03:18:23;;;;;;;10.85;4.65;;;;;;;;;;8426024;28;20410;-77
2021/12/03 03:22:26;;;;;;;11.68;5.30;;;;;;;;;;8432894;28;20047;-76
2021/12/03 03:26:31;;;;;;;14.55;4.78;;;;;;;;;;8433394;28;20044;-76
2021/12/03 03:30:34;;;;;;;8.75;4.20;;;;;;;;;;8433285;28;20044;-76
2021/12/03 03:34:38;;;;;;;9.13;4.07;;;;;;;;;;8433059;28;20048;-77
2021/12/03 03:38:41;;;;;;;11.50;3.80;;;;;;;;;;8433489;28;20503;-76
2021/12/03 03:42:45;;;;;;;9.70;3.78;;;;;;;;;;8432893;28;20074;-76
2021/12/03 03:46:52;;;;;;;5.97;3.30;;;;;;;;;;8432812;28;20465;-76
2021/12/03 03:50:55;;;;;;;10.07;4.15;;;;;;;;;;8432650;28;20074;-76
2021/12/03 03:54:58;;;;;;;10.32;4.05;;;;;;;;;;8432557;28;20044;-76
2021/12/03 03:59:02;;;;;;;7.72;3.45;;;;;;;;;;8432408;28;20123;-76
2021/12/03 04:03:05;;;;;;;6.53;3.40;;;;;;;;;;8432298;28;20052;-76
2021/12/03 04:07:08;;;;;;;7.78;3.25;;;;;;;;;;8432578;28;20048;-77
2021/12/03 04:11:12;;;;;;;6.07;3.35;;;;;;;;;;8431979;28;20086;-76
2021/12/03 04:15:17;;;;;;;7.75;4.30;;;;;;;;;;8431913;28;20040;-76
2021/12/03 04:19:20;;;;;;;11.90;4.45;;;;;;;;;;8431693;28;20048;-76
2021/12/03 04:23:23;;;;;;;10.60;5.50;;;;;;;;;;8432076;28;20376;-76
2021/12/03 04:27:26;;;;;;;8.20;4.25;;;;;;;;;;8431454;28;20051;-76
2021/12/03 04:31:30;;;;;;;9.80;4.85;;;;;;;;;;8431392;28;20138;-76
2021/12/03 04:35:33;;;;;;;11.88;4.35;;;;;;;;;;8431201;28;20078;-76
2021/12/03 04:39:36;;;;;;;9.25;4.20;;;;;;;;;;8431510;28;20461;-76
2021/12/03 04:43:39;;;;;;;10.60;4.50;;;;;;;;;;8431446;28;20051;-76
2021/12/03 04:47:44;;;;;;;15.70;5.82;;;;;;;;;;8430788;28;20051;-76
2021/12/03 04:51:47;;;;;;;13.73;5.20;;;;;;;;;;8430884;28;20051;-76
2021/12/03 04:55:50;;;;;;;13.05;5.65;;;;;;;;;;8430714;28;20052;-76
2021/12/03 04:59:53;;;;;;;10.20;5.70;;;;;;;;;;8431063;28;20070;-76
2021/12/03 05:03:57;;;;;;;11.52;5.10;;;;;;;;;;8429630;28;20194;-76
2021/12/03 05:08:01;;;;;;;13.80;6.85;;;;;;;;;;8430455;28;20051;-76
2021/12/03 05:12:06;;;;;;;13.15;6.70;;;;;;;;;;8430342;28;20058;-76
2021/12/03 05:16:10;;;;;;;12.68;5.97;;;;;;;;;;8430309;28;20086;-76
2021/12/03 05:20:14;;;;;;;13.85;7.05;;;;;;;;;;8430184;28;20492;-76
2021/12/03 05:24:18;;;;;;;10.35;5.13;;;;;;;;;;8430037;28;20047;-77
2021/12/03 05:28:21;;;;;;;17.92;7.75;;;;;;;;;;8430572;28;20048;-76
2021/12/03 05:32:24;;;;;;;13.10;5.85;;;;;;;;;;8430005;28;20040;-76
2021/12/03 05:36:29;;;;;;;13.00;6.63;;;;;;;;;;8429935;28;20406;-76
2021/12/03 05:40:32;;;;;;;10.18;5.90;;;;;;;;;;8430379;28;20063;-76
2021/12/03 05:44:35;;;;;;;24.20;8.80;;;;;;;;;;8430066;28;20142;-76
2021/12/03 05:48:39;;;;;;;17.20;8.05;;;;;;;;;;8429483;28;20044;-76
2021/12/03 05:52:43;;;;;;;17.38;7.32;;;;;;;;;;8429731;28;20093;-77
2021/12/03 05:56:46;;;;;;;14.95;6.88;;;;;;;;;;8430121;28;20044;-76
2021/12/03 06:00:50;;;;;;;14.95;7.32;;;;;;;;;;8429560;28;20078;-75
2021/12/03 06:04:53;;;;;;;20.17;7.18;;;;;;;;;;8429443;28;20036;-76
2021/12/03 06:08:58;;;;;;;14.73;6.90;;;;;;;;;;8429458;28;20052;-76
2021/12/03 06:13:02;;;;;;;12.93;6.70;;;;;;;;;;8431365;28;20041;-76
2021/12/03 06:17:05;;;;;;;10.45;5.47;;;;;;;;;;8436104;28;20492;-76
2021/12/03 06:21:10;;;;;;;16.70;6.78;;;;;;;;;;8435560;28;20051;-76
2021/12/03 06:25:15;;;;;;;14.13;6.47;;;;;;;;;;8435322;28;20135;-76
2021/12/03 06:29:19;;;;;;;11.65;5.90;;;;;;;;;;8435222;28;20044;-76
2021/12/03 06:33:21;;;;;;;14.80;7.40;;;;;;;;;;8435155;28;20055;-76
2021/12/03 06:37:24;;;;;;;10.63;6.10;;;;;;;;;;8434927;28;20052;-75
2021/12/03 06:41:29;;;;;;;17.27;8.32;;;;;;;;;;8434941;28;20080;-75
2021/12/03 06:45:33;;;;;;;15.27;6.85;;;;;;;;;;8435197;28;20403;-75
2021/12/03 06:49:36;;;;;;;14.80;5.90;;;;;;;;;;8434483;28;20077;-75
2021/12/03 06:53:43;;;;;;;10.38;5.55;;;;;;;;;;8434997;28;20471;-75
2021/12/03 06:57:48;;;;;;;13.57;6.03;;;;;;;;;;8434389;28;20044;-75
2021/12/03 07:01:52;;;;;;;19.30;6.57;;;;;;;;;;8434285;28;20044;-75
2021/12/03 07:05:55;;;;;;;20.63;8.52;;;;;;;;;;8434083;28;20048;-75
2021/12/03 07:10:00;;;;;;;26.75;7.63;;;;;;;;;;8433939;28;20044;-75
2021/12/03 07:14:05;;;;;;;19.30;7.03;;;;;;;;;;8434303;28;20044;-74
2021/12/03 07:18:08;;;;;;;18.80;8.32;;;;;;;;;;8434228;28;20106;-75
2021/12/03 07:22:11;;;;;;;29.33;9.85;;;;;;;;;;8434108;28;20502;-75
2021/12/03 07:26:14;;;;;;;20.88;8.85;;;;;;;;;;8432449;28;20044;-75
2021/12/03 07:30:20;;;;;;;15.55;8.20;;;;;;;;;;8433329;28;20048;-75
2021/12/03 07:34:23;;;;;;;17.77;7.97;;;;;;;;;;8433206;28;20048;-75
2021/12/03 07:38:27;;;;;;;13.60;7.90;;;;;;;;;;8432081;28;20054;-75
2021/12/03 07:42:30;;;;;;;15.02;7.13;;;;;;;;;;8432913;28;20069;-75
2021/12/03 07:46:35;;;;;;;12.38;6.90;;;;;;;;;;8432595;28;20052;-75
2021/12/03 07:50:39;;;;;;;12.75;6.50;;;;;;;;;;8432726;28;20044;-75
2021/12/03 07:54:42;;;;;;;15.40;6.60;;;;;;;;;;8433008;28;20510;-75
2021/12/03 07:58:45;;;;;;;11.90;7.20;;;;;;;;;;8432299;28;20101;-75
2021/12/03 08:02:50;;;;;;;12.80;7.47;;;;;;;;;;8432281;28;20048;-75
2021/12/03 08:06:54;;;;;;;20.25;8.13;;;;;;;;;;8432021;28;20044;-75
2021/12/03 08:10:57;;;;;;;15.60;7.35;;;;;;;;;;8432465;28;20399;-75
2021/12/03 08:15:00;;;;;;;11.25;6.78;;;;;;;;;;8431982;28;20090;-75
2021/12/03 08:19:05;;;;;;;10.05;5.90;;;;;;;;;;8431747;28;20089;-75
2021/12/03 08:23:10;;;;;;;10.90;5.75;;;;;;;;;;8431552;28;20124;-75
2021/12/03 08:27:12;;;;;;;12.50;5.85;;;;;;;;;;8431406;28;20048;-75
2021/12/03 08:31:15;;;;;;;17.63;6.82;;;;;;;;;;8431306;28;20051;-75
2021/12/03 08:35:21;;;;;;;16.70;8.07;;;;;;;;;;8431166;28;20052;-76
2021/12/03 08:39:24;;;;;;;15.73;6.00;;;;;;;;;;8431134;28;20048;-75
2021/12/03 08:43:27;;;;;;;13.00;6.15;;;;;;;;;;8431040;28;20135;-75
2021/12/03 08:47:30;;;;;;;13.13;6.03;;;;;;;;;;8430712;28;20400;-75
2021/12/03 08:51:47;;;;;;;14.65;5.28;;;;;;;;;;8430956;28;20048;-75
2021/12/03 08:55:50;;;;;;;14.07;6.05;;;;;;;;;;8430726;28;20052;-75
2021/12/03 08:59:55;;;;;;;9.38;5.20;;;;;;;;;;8430582;28;20068;-76
2021/12/03 09:03:59;;;;;;;10.48;5.13;;;;;;;;;;8430492;28;20052;-75
2021/12/03 09:08:04;;;;;;;10.50;5.28;;;;;;;;;;8430370;28;20140;-75
2021/12/03 09:12:08;;;;;;;9.45;4.82;;;;;;;;;;8430895;28;20051;-76
2021/12/03 09:16:16;;;;;;;10.60;4.85;;;;;;;;;;8430250;28;20094;-75
2021/12/03 09:20:31;;;;;;;8.68;4.97;;;;;;;;;;8430289;28;20483;-75
2021/12/03 09:24:37;;;;;;;11.00;5.47;;;;;;;;;;8430622;28;20450;-76
2021/12/03 09:28:43;;;;;;;12.73;5.53;;;;;;;;;;8430086;28;20048;-76
2021/12/03 09:32:52;;;;;;;10.98;5.03;;;;;;;;;;8429967;28;20040;-75
2021/12/03 09:36:55;;;;;;;9.10;5.00;;;;;;;;;;8429958;28;20044;-75
2021/12/03 09:41:07;;;;;;;16.50;4.90;;;;;;;;;;8429942;28;20123;-75
2021/12/03 09:45:10;;;;;;;;;;;;;;;;;;8430284;28;20089;-75
2021/12/03 09:49:31;;;;;;;;;;;;;;;;;;8434221;28;19963;-76
2021/12/03 09:58:03;;;;;;;16.55;4.40;;;;;;;;;;8427198;28;20056;-75
2021/12/03 10:15:19;;;;;;;11.48;4.57;;;;;;;;;;8435698;28;20089;-75
2021/12/03 10:19:31;;;;;;;8.88;3.70;;;;;;;;;;8435704;28;20048;-75
2021/12/03 10:41:21;;;;;;;11.45;4.22;;;;;;;;;;8434919;28;20528;-75
2021/12/03 10:45:40;;;;;;;9.43;3.92;;;;;;;;;;8435200;28;20491;-76
2021/12/03 10:49:56;;;;;;;10.10;4.28;;;;;;;;;;8434629;28;20052;-75
2021/12/03 10:54:05;;;;;;;8.00;3.17;;;;;;;;;;8434508;28;20106;-75
2021/12/03 10:58:29;;;;;;;7.80;3.78;;;;;;;;;;8433862;28;20073;-76
2021/12/03 11:07:23;;;;;;;8.85;3.38;;;;;;;;;;8433740;28;20055;-76
2021/12/03 11:11:49;;;;;;;8.50;3.63;;;;;;;;;;8433964;28;20051;-75
2021/12/03 11:16:32;;;;;;;7.43;3.30;;;;;;;;;;8433801;28;20071;-75
2021/12/03 11:29:38;;;;;;;6.55;3.63;;;;;;;;;;8433508;28;20487;-75
2021/12/03 14:43:09;;;;;;;13.52;6.60;;;;;;;;;;8430038;28;20109;-76
2021/12/03 14:47:51;;;;;;;25.55;8.52;;;;;;;;;;8434597;28;20117;-76
2021/12/03 14:52:08;;;;;;;34.22;9.95;;;;;;;;;;8434662;28;20055;-76
2021/12/03 14:56:15;;;;;;;22.08;7.22;;;;;;;;;;8434569;28;20073;-76
2021/12/03 15:00:23;;;;;;;15.80;6.57;;;;;;;;;;8434360;28;20047;-76
2021/12/03 15:04:50;;;;;;;23.80;9.65;;;;;;;;;;8434310;28;20408;-76
2021/12/03 15:08:56;;;;;;;23.48;11.15;;;;;;;;;;8434003;28;20407;-76
2021/12/03 15:13:30;;;;;;;27.27;9.20;;;;;;;;;;8434073;28;20052;-76
2021/12/03 15:26:38;;;;;;;38.17;10.95;;;;;;;;;;8408364;28;20082;-76
2021/12/03 15:35:05;;;;;;;33.13;12.40;;;;;;;;;;8431456;28;20474;-76
2021/12/03 15:39:31;;;;;;;40.30;15.23;;;;;;;;;;8433181;28;20515;-76
2021/12/03 15:52:44;;;;;;;28.35;11.70;;;;;;;;;;8420457;28;20070;-76
2021/12/03 16:10:11;;;;;;;21.08;9.15;;;;;;;;;;8432185;28;20047;-75
2021/12/03 16:14:40;;;;;;;20.00;7.57;;;;;;;;;;8432172;28;20123;-76
2021/12/03 16:19:00;;;;;;;21.45;8.20;;;;;;;;;;8432417;28;20044;-76
2021/12/03 16:53:52;;;;;;;17.45;6.38;;;;;;;;;;8430905;28;20040;-75
2021/12/03 16:57:57;;;;;;;38.83;12.93;;;;;;;;;;8430775;28;20044;-75
2021/12/03 17:02:03;;;;;;;54.65;13.50;;;;;;;;;;8430601;28;20457;-75
2021/12/03 17:10:59;;;;;;;30.67;9.65;;;;;;;;;;8430356;28;20048;-75
2021/12/03 17:59:05;;;;;;;15.23;6.93;;;;;;;;;;8492734;28;20049;-77
2021/12/03 18:03:20;;;;;;;12.93;5.75;;;;;;;;;;8493566;28;20186;-76
2021/12/03 18:07:32;;;;;;;16.90;6.50;;;;;;;;;;8492928;28;20051;-76
2021/12/03 18:11:57;;;;;;;11.82;4.85;;;;;;;;;;8492407;28;20051;-77
2021/12/03 18:55:14;;;;;;;24.58;8.88;;;;;;;;;;8427504;28;20479;-78
2021/12/03 18:59:17;;;;;;;37.15;11.43;;;;;;;;;;8439692;28;20100;-77
2021/12/03 19:03:25;;;;;;;27.83;10.15;;;;;;;;;;8447638;28;20048;-78
2021/12/03 19:07:32;;;;;;;34.05;9.82;;;;;;;;;;8453869;28;20047;-75
2021/12/03 19:11:38;;;;;;;23.25;9.25;;;;;;;;;;8454468;28;20036;-76
2021/12/03 19:15:44;;;;;;;32.75;11.27;;;;;;;;;;8445735;28;20044;-75
2021/12/03 19:19:48;;;;;;;92.45;29.67;;;;;;;;;;8450002;28;20055;-75
2021/12/03 19:23:52;;;;;;;28.33;11.02;;;;;;;;;;8467802;28;20105;-78
2021/12/03 19:27:57;;;;;;;21.17;8.75;;;;;;;;;;8466938;28;20147;-77
2021/12/03 19:32:00;;;;;;;35.90;13.55;;;;;;;;;;8450204;28;20044;-78
2021/12/03 19:36:04;;;;;;;24.27;9.85;;;;;;;;;;8433192;28;20044;-75
2021/12/03 19:40:11;;;;;;;22.55;8.82;;;;;;;;;;8433034;28;20048;-75
2021/12/03 19:44:19;;;;;;;19.15;7.72;;;;;;;;;;8433396;28;20489;-75
2021/12/03 19:48:22;;;;;;;24.73;9.52;;;;;;;;;;8431873;28;20530;-74
2021/12/03 19:52:27;;;;;;;22.27;9.38;;;;;;;;;;8441891;28;20048;-74
2021/12/03 19:56:32;;;;;;;21.40;9.85;;;;;;;;;;8428256;28;20461;-75
2021/12/03 20:00:38;;;;;;;25.45;10.65;;;;;;;;;;8447468;28;20417;-75
2021/12/03 20:04:42;;;;;;;22.83;9.95;;;;;;;;;;8450507;28;20080;-77
2021/12/03 20:08:45;;;;;;;27.30;12.07;;;;;;;;;;8464726;27;20046;-75
2021/12/03 20:12:50;;;;;;;28.15;13.45;;;;;;;;;;8462578;27;20036;-75
2021/12/03 20:16:58;;;;;;;51.15;14.68;;;;;;;;;;8460828;28;20439;-75
2021/12/03 20:21:02;;;;;;;49.65;17.10;;;;;;;;;;8462268;28;20039;-75
2021/12/03 20:25:20;;;;;;;57.50;19.38;;;;;;;;;;8442217;28;20052;-75
2021/12/03 20:29:35;;;;;;;50.13;17.73;;;;;;;;;;8413303;28;20044;-75
2021/12/03 20:33:56;;;;;;;42.65;15.60;;;;;;;;;;8431854;28;20657;-75
2021/12/03 20:38:00;;;;;;;40.42;13.50;;;;;;;;;;8431222;28;20047;-75
2021/12/03 20:42:09;;;;;;;30.92;12.25;;;;;;;;;;8431088;28;20055;-75
2021/12/03 20:46:34;;;;;;;38.35;11.57;;;;;;;;;;8430983;28;20407;-75
2021/12/03 21:08:32;;;;;;;35.53;13.30;;;;;;;;;;8430472;28;20177;-77
2021/12/03 21:12:40;;;;;;;49.95;19.50;;;;;;;;;;8430377;28;20044;-75
2021/12/03 21:16:58;;;;;;;44.13;19.98;;;;;;;;;;8430302;28;20047;-75
2021/12/03 21:21:06;;;;;;;41.38;16.73;;;;;;;;;;8430241;28;20051;-75
2021/12/03 21:25:14;;;;;;;37.30;15.32;;;;;;;;;;8429858;28;20044;-75
2021/12/03 21:29:26;;;;;;;30.50;12.48;;;;;;;;;;8430117;28;20048;-75
2021/12/03 21:33:41;;;;;;;40.78;16.73;;;;;;;;;;8412415;28;20049;-75
2021/12/03 21:42:19;;;;;;;;;;;;;;;;;;8376855;28;20052;-76
2021/12/03 21:46:24;;;;;;;33.70;15.48;;;;;;;;;;8429892;28;20002;-76
2021/12/03 21:50:27;;;;;;;48.60;19.10;;;;;;;;;;8429722;28;20040;-78
2021/12/03 21:54:30;;;;;;;48.10;21.88;;;;;;;;;;8430170;28;20048;-75
2021/12/03 21:58:35;;;;;;;37.90;17.25;;;;;;;;;;8430124;28;20044;-75
2021/12/03 22:02:39;;;;;;;40.70;16.38;;;;;;;;;;8429587;28;20127;-75
2021/12/03 22:06:42;;;;;;;36.53;15.82;;;;;;;;;;8429902;28;20070;-75
2021/12/03 22:10:45;;;;;;;31.40;14.05;;;;;;;;;;8429478;28;20045;-75
2021/12/03 22:14:50;;;;;;;26.98;12.57;;;;;;;;;;8434913;28;20524;-75
2021/12/03 22:18:53;;;;;;;29.88;12.40;;;;;;;;;;8436076;28;20051;-75
2021/12/03 22:22:56;;;;;;;31.73;11.55;;;;;;;;;;8435559;28;20396;-75
2021/12/03 22:26:59;;;;;;;28.52;12.43;;;;;;;;;;8435064;28;20055;-75
2021/12/03 22:31:04;;;;;;;27.00;11.52;;;;;;;;;;8435291;28;20054;-78
2021/12/03 22:35:08;;;;;;;36.40;11.60;;;;;;;;;;8435168;28;20052;-76
2021/12/03 22:39:11;;;;;;;23.45;11.02;;;;;;;;;;8434921;28;20055;-75
2021/12/03 22:43:17;;;;;;;33.28;14.15;;;;;;;;;;8434927;28;20048;-77
2021/12/03 22:47:32;;;;;;;26.58;11.00;;;;;;;;;;8434718;28;20445;-77
2021/12/03 22:55:57;;;;;;;30.08;12.55;;;;;;;;;;8434509;28;20089;-76
2021/12/03 23:00:00;;;;;;;28.52;12.02;;;;;;;;;;8434446;28;20051;-75
2021/12/03 23:04:05;;;;;;;35.63;12.40;;;;;;;;;;8434187;28;20056;-77
2021/12/03 23:08:08;;;;;;;25.73;10.73;;;;;;;;;;8434575;28;20076;-75
2021/12/03 23:12:13;;;;;;;26.48;11.48;;;;;;;;;;8433932;28;20071;-75
2021/12/03 23:16:16;;;;;;;24.10;10.65;;;;;;;;;;8434397;28;20585;-75
2021/12/03 23:20:20;;;;;;;28.67;11.57;;;;;;;;;;8433810;28;20498;-75
2021/12/03 23:24:23;;;;;;;25.83;11.45;;;;;;;;;;8433940;28;20048;-75
2021/12/03 23:28:28;;;;;;;32.55;12.73;;;;;;;;;;8433259;28;20080;-75
2021/12/03 23:32:31;;;;;;;29.70;12.25;;;;;;;;;;8433912;28;20047;-75
2021/12/03 23:36:36;;;;;;;23.52;10.38;;;;;;;;;;8433327;28;20044;-77
2021/12/03 23:40:39;;;;;;;27.77;12.25;;;;;;;;;;8433554;28;20055;-77
2021/12/03 23:44:42;;;;;;;32.28;12.68;;;;;;;;;;8432881;28;20047;-77
2021/12/03 23:48:45;;;;;;;27.00;11.95;;;;;;;;;;8433147;28;20131;-76
2021/12/03 23:52:50;;;;;;;28.02;12.05;;;;;;;;;;8432625;28;20048;-77
2021/12/03 23:56:53;;;;;;;24.10;12.45;;;;;;;;;;8432558;28;20453;-77
